createdAt,value
2023-10-23T00:00:09.536Z,6.23
2023-10-23T00:02:42.277Z,5.20
2023-10-23T00:05:10.833Z,5.53
2023-10-23T00:07:39.221Z,5.73
2023-10-23T00:10:09.090Z,5.47
2023-10-23T00:12:37.489Z,6.17
2023-10-23T00:15:06.633Z,5.47
2023-10-23T00:17:35.074Z,5.17
2023-10-23T00:20:05.129Z,5.47
2023-10-23T00:22:33.397Z,5.43
2023-10-23T00:25:01.662Z,4.50
2023-10-23T00:27:30.026Z,5.37
2023-10-23T00:29:58.338Z,5.23
2023-10-23T00:32:26.822Z,5.43
2023-10-23T00:34:55.085Z,5.80
2023-10-23T00:37:24.761Z,4.70
2023-10-23T00:39:53.181Z,5.53
2023-10-23T00:42:21.426Z,7.23
2023-10-23T00:44:49.861Z,4.83
2023-10-23T00:47:19.750Z,5.60
2023-10-23T00:49:48.010Z,4.43
2023-10-23T00:52:16.793Z,5.50
2023-10-23T00:54:48.067Z,4.77
2023-10-23T00:57:16.473Z,5.40
2023-10-23T00:59:45.168Z,4.97
2023-10-23T01:02:13.794Z,5.57
2023-10-23T01:04:42.579Z,4.70
2023-10-23T01:07:11.443Z,5.27
2023-10-23T01:09:39.970Z,4.47
2023-10-23T01:12:10.387Z,5.10
2023-10-23T01:14:38.829Z,5.27
2023-10-23T01:17:08.273Z,4.83
2023-10-23T01:19:36.707Z,4.90
2023-10-23T01:22:05.195Z,4.87
2023-10-23T01:24:38.351Z,5.13
2023-10-23T01:27:08.262Z,4.40
2023-10-23T01:29:37.311Z,5.20
2023-10-23T01:32:06.072Z,5.23
2023-10-23T01:34:34.520Z,5.43
2023-10-23T01:37:02.796Z,5.73
2023-10-23T01:39:31.052Z,4.93
2023-10-23T01:42:00.417Z,4.40
2023-10-23T01:44:30.121Z,4.27
2023-10-23T01:46:58.439Z,4.97
2023-10-23T01:49:27.190Z,4.80
2023-10-23T01:51:56.094Z,4.57
2023-10-23T01:54:24.503Z,5.00
2023-10-23T01:56:52.874Z,5.27
2023-10-23T01:59:21.117Z,4.37
2023-10-23T02:01:50.833Z,4.13
2023-10-23T02:04:19.161Z,5.10
2023-10-23T02:06:47.542Z,4.00
2023-10-23T02:09:17.378Z,5.00
2023-10-23T02:11:45.940Z,4.57
2023-10-23T02:14:14.315Z,4.50
2023-10-23T02:16:41.643Z,5.37
2023-10-23T02:19:11.421Z,5.63
2023-10-23T02:21:39.770Z,4.37
2023-10-23T02:24:08.398Z,5.23
2023-10-23T02:26:36.585Z,5.10
2023-10-23T02:29:04.843Z,5.13
2023-10-23T02:31:33.188Z,5.10
2023-10-23T02:34:01.441Z,5.73
2023-10-23T02:36:31.614Z,5.30
2023-10-23T02:39:00.783Z,4.77
2023-10-23T02:41:31.886Z,5.90
2023-10-23T02:44:00.201Z,5.00
2023-10-23T02:46:28.676Z,5.73
2023-10-23T02:48:56.999Z,5.17
2023-10-23T02:51:25.589Z,5.50
2023-10-23T02:53:55.238Z,5.70
2023-10-23T02:56:23.535Z,6.73
2023-10-23T02:58:51.764Z,6.80
2023-10-23T03:01:22.493Z,5.13
2023-10-23T03:03:50.856Z,6.03
2023-10-23T03:06:19.557Z,5.00
2023-10-23T03:08:47.924Z,5.60
2023-10-23T03:11:17.599Z,6.27
2023-10-23T03:13:46.022Z,5.33
2023-10-23T03:16:15.741Z,6.07
2023-10-23T03:18:44.149Z,6.23
2023-10-23T03:21:12.581Z,6.00
2023-10-23T03:23:40.808Z,5.63
2023-10-23T03:26:09.061Z,6.73
2023-10-23T03:28:38.735Z,6.30
2023-10-23T03:31:06.934Z,6.07
2023-10-23T03:33:35.162Z,5.03
2023-10-23T03:36:03.412Z,5.07
2023-10-23T03:38:31.962Z,6.00
2023-10-23T03:41:01.795Z,6.33
2023-10-23T03:43:30.516Z,5.13
2023-10-23T03:46:04.173Z,6.17
2023-10-23T03:48:32.562Z,5.67
2023-10-23T03:51:02.242Z,5.77
2023-10-23T03:53:30.608Z,5.07
2023-10-23T03:55:58.848Z,7.23
2023-10-23T03:58:27.100Z,6.00
2023-10-23T04:00:56.019Z,6.27
2023-10-23T04:03:25.915Z,6.50
2023-10-23T04:05:54.311Z,6.10
2023-10-23T04:08:22.652Z,6.10
2023-10-23T04:10:51.362Z,5.33
2023-10-23T04:13:19.673Z,6.13
2023-10-23T04:15:55.565Z,5.37
2023-10-23T04:18:26.762Z,6.17
2023-10-23T04:21:04.698Z,6.40
2023-10-23T04:23:33.187Z,6.07
2023-10-23T04:26:01.630Z,5.90
2023-10-23T04:28:30.090Z,5.43
2023-10-23T04:30:58.368Z,6.00
2023-10-23T04:33:28.492Z,5.03
2023-10-23T04:35:58.021Z,5.80
2023-10-23T04:38:26.949Z,5.53
2023-10-23T04:40:55.319Z,5.47
2023-10-23T04:43:24.292Z,5.70
2023-10-23T04:45:54.427Z,5.50
2023-10-23T04:48:23.185Z,4.77
2023-10-23T04:50:52.801Z,5.47
2023-10-23T04:53:21.639Z,5.73
2023-10-23T04:55:49.956Z,6.27
2023-10-23T04:58:18.353Z,6.37
2023-10-23T05:00:46.826Z,5.13
2023-10-23T05:03:15.195Z,5.17
2023-10-23T05:05:49.210Z,5.47
2023-10-23T05:08:18.942Z,6.27
2023-10-23T05:10:47.323Z,6.70
2023-10-23T05:13:15.613Z,6.90
2023-10-23T05:15:44.017Z,5.23
2023-10-23T05:18:12.355Z,5.03
2023-10-23T05:20:40.589Z,5.60
2023-10-23T05:23:08.827Z,4.97
2023-10-23T05:25:40.194Z,5.60
2023-10-23T05:28:08.514Z,5.83
2023-10-23T05:30:36.726Z,5.27
2023-10-23T05:33:05.544Z,5.50
2023-10-23T05:35:34.035Z,5.13
2023-10-23T05:38:02.348Z,5.40
2023-10-23T05:40:33.497Z,5.30
2023-10-23T05:43:03.312Z,6.07
2023-10-23T05:45:31.746Z,4.93
2023-10-23T05:48:00.064Z,6.57
2023-10-23T05:50:28.372Z,5.60
2023-10-23T05:52:56.612Z,6.67
2023-10-23T05:55:24.902Z,6.03
2023-10-23T05:57:53.738Z,5.47
2023-10-23T06:00:23.589Z,5.97
2023-10-23T06:02:52.206Z,6.77
2023-10-23T06:05:20.499Z,5.30
2023-10-23T06:07:49.010Z,5.90
2023-10-23T06:10:17.479Z,5.60
2023-10-23T06:12:45.723Z,5.63
2023-10-23T06:15:13.995Z,5.07
2023-10-23T06:17:43.659Z,6.47
2023-10-23T06:20:12.793Z,6.40
2023-10-23T06:22:41.003Z,7.20
2023-10-23T06:25:10.036Z,5.60
2023-10-23T06:27:38.313Z,6.00
2023-10-23T06:30:07.917Z,5.40
2023-10-23T06:32:36.558Z,6.10
2023-10-23T06:35:07.366Z,6.07
2023-10-23T06:37:35.692Z,5.70
2023-10-23T06:40:04.205Z,6.10
2023-10-23T06:42:32.496Z,6.43
2023-10-23T06:45:00.954Z,5.83
2023-10-23T06:47:29.650Z,4.83
2023-10-23T06:49:57.903Z,4.80
2023-10-23T06:52:27.600Z,5.50
2023-10-23T06:54:55.859Z,4.80
2023-10-23T06:57:24.132Z,6.20
2023-10-23T06:59:55.387Z,4.80
2023-10-23T07:02:23.893Z,5.30
2023-10-23T07:04:52.181Z,4.77
2023-10-23T07:07:29.018Z,6.33
2023-10-23T07:10:01.631Z,6.07
2023-10-23T07:12:30.212Z,5.03
2023-10-23T07:14:58.525Z,5.23
2023-10-23T07:17:27.017Z,5.90
2023-10-23T07:19:55.311Z,6.57
2023-10-23T07:22:23.523Z,7.33
2023-10-23T07:24:51.756Z,6.30
2023-10-23T07:27:21.508Z,5.07
2023-10-23T07:29:49.876Z,6.93
2023-10-23T07:32:18.154Z,5.83
2023-10-23T07:34:46.381Z,5.97
2023-10-23T07:37:19.300Z,6.30
2023-10-23T07:39:48.986Z,5.67
2023-10-23T07:42:17.532Z,5.77
2023-10-23T07:44:47.421Z,5.47
2023-10-23T07:47:15.909Z,7.50
2023-10-23T07:49:44.138Z,7.30
2023-10-23T07:52:12.456Z,7.37
2023-10-23T07:54:40.753Z,6.83
2023-10-23T07:57:09.031Z,7.10
2023-10-23T07:59:37.440Z,6.93
2023-10-23T08:02:07.990Z,5.77
2023-10-23T08:04:36.421Z,6.53
2023-10-23T08:07:04.985Z,6.37
2023-10-23T08:09:33.265Z,6.57
2023-10-23T08:12:01.486Z,6.87
2023-10-23T08:14:29.822Z,6.23
2023-10-23T08:16:58.134Z,6.60
2023-10-23T08:19:28.015Z,5.80
2023-10-23T08:21:56.411Z,6.67
2023-10-23T08:24:24.894Z,6.90
2023-10-23T08:26:53.237Z,6.57
2023-10-23T08:29:21.571Z,6.30
2023-10-23T08:31:49.854Z,5.80
2023-10-23T08:34:22.358Z,6.43
2023-10-23T08:36:52.389Z,5.90
2023-10-23T08:39:20.857Z,5.60
2023-10-23T08:41:49.745Z,6.17
2023-10-23T08:44:18.163Z,6.30
2023-10-23T08:46:46.447Z,4.77
2023-10-23T08:49:17.405Z,4.77
2023-10-23T08:51:51.141Z,4.87
2023-10-23T08:54:22.652Z,4.47
2023-10-23T08:56:55.700Z,4.73
2023-10-23T08:59:24.128Z,6.40
2023-10-23T09:01:52.729Z,5.00
2023-10-23T09:04:27.226Z,4.90
2023-10-23T09:06:57.294Z,4.83
2023-10-23T09:09:27.769Z,5.40
2023-10-23T09:11:56.062Z,4.67
2023-10-23T09:14:26.002Z,4.90
2023-10-23T09:16:56.011Z,4.60
2023-10-23T09:19:29.218Z,5.07
2023-10-23T09:22:00.816Z,4.87
2023-10-23T09:24:34.790Z,4.80
2023-10-23T09:27:03.189Z,4.70
2023-10-23T09:29:31.491Z,5.70
2023-10-23T09:32:00.714Z,4.23
2023-10-23T09:34:30.988Z,4.10
2023-10-23T09:36:59.762Z,4.80
2023-10-23T09:39:28.233Z,5.17
2023-10-23T09:41:58.499Z,5.00
2023-10-23T09:44:29.168Z,4.20
2023-10-23T09:47:00.842Z,5.47
2023-10-23T09:49:31.120Z,5.07
2023-10-23T09:52:01.831Z,5.70
2023-10-23T09:54:32.724Z,5.33
2023-10-23T09:57:06.045Z,4.57
2023-10-23T09:59:43.408Z,4.40
2023-10-23T10:02:12.670Z,4.50
2023-10-23T10:04:51.468Z,4.70
2023-10-23T10:07:25.004Z,4.73
2023-10-23T10:09:54.777Z,4.57
2023-10-23T10:12:26.804Z,4.97
2023-10-23T10:14:57.586Z,4.63
2023-10-23T10:17:27.712Z,3.80
2023-10-23T10:19:57.378Z,5.03
2023-10-23T10:22:30.027Z,4.47
2023-10-23T10:24:59.114Z,4.73
2023-10-23T10:27:29.531Z,4.37
2023-10-23T10:29:57.823Z,4.70
2023-10-23T10:32:26.322Z,4.30
2023-10-23T10:34:57.726Z,4.50
2023-10-23T10:37:29.006Z,4.37
2023-10-23T10:40:09.057Z,3.70
2023-10-23T10:42:43.354Z,3.90
2023-10-23T10:45:20.955Z,3.80
2023-10-23T10:47:52.987Z,3.97
2023-10-23T10:50:36.033Z,4.07
2023-10-23T10:53:05.683Z,3.50
2023-10-23T10:55:34.723Z,3.87
2023-10-23T10:58:05.254Z,4.07
2023-10-23T11:00:36.678Z,3.40
2023-10-23T11:03:05.493Z,4.03
2023-10-23T11:05:34.236Z,3.63
2023-10-23T11:08:02.596Z,3.30
2023-10-23T11:10:30.871Z,4.03
2023-10-23T11:13:00.319Z,3.50
2023-10-23T11:15:29.997Z,2.97
2023-10-23T11:17:58.535Z,2.70
2023-10-23T11:20:32.040Z,4.03
2023-10-23T11:23:00.737Z,5.17
2023-10-23T11:25:29.238Z,3.87
2023-10-23T11:27:57.605Z,4.00
2023-10-23T11:30:30.751Z,4.47
2023-10-23T11:32:59.049Z,3.53
2023-10-23T11:35:35.017Z,5.17
2023-10-23T11:38:05.888Z,3.70
2023-10-23T11:40:37.975Z,3.33
2023-10-23T11:43:10.818Z,3.43
2023-10-23T11:45:41.368Z,2.53
2023-10-23T11:48:10.192Z,2.97
2023-10-23T11:50:39.538Z,3.50
2023-10-23T11:53:08.062Z,3.10
2023-10-23T11:55:40.144Z,3.37
2023-10-23T11:58:08.516Z,3.20
2023-10-23T12:00:38.889Z,3.13
2023-10-23T12:03:08.637Z,3.00
2023-10-23T12:05:36.943Z,3.03
2023-10-23T12:08:06.235Z,3.13
2023-10-23T12:10:39.246Z,2.87
2023-10-23T12:13:07.797Z,2.43
2023-10-23T12:15:36.046Z,3.10
2023-10-23T12:18:05.650Z,3.20
2023-10-23T12:20:36.567Z,3.00
2023-10-23T12:23:04.806Z,2.43
2023-10-23T12:25:33.084Z,3.13
2023-10-23T12:28:01.347Z,3.43
2023-10-23T12:30:29.648Z,2.87
2023-10-23T12:33:16.629Z,2.70
2023-10-23T12:35:49.682Z,3.10
2023-10-23T12:38:19.206Z,3.00
2023-10-23T12:40:49.889Z,3.40
2023-10-23T12:43:18.376Z,3.07
2023-10-23T12:45:47.835Z,7.03
2023-10-23T12:48:16.606Z,4.00
2023-10-23T12:50:45.629Z,3.70
2023-10-23T12:53:15.704Z,3.60
2023-10-23T12:55:44.892Z,3.70
2023-10-23T12:58:13.188Z,3.67
2023-10-23T13:00:41.566Z,4.40
2023-10-23T13:03:09.902Z,3.40
2023-10-23T13:05:38.216Z,4.43
2023-10-23T13:08:06.825Z,4.03
2023-10-23T13:10:36.704Z,3.80
2023-10-23T13:13:05.018Z,3.87
2023-10-23T13:15:33.356Z,3.90
2023-10-23T13:18:03.830Z,4.23
2023-10-23T13:21:28.277Z,3.90
2023-10-23T13:23:20.423Z,4.33
2023-10-23T13:26:05.769Z,3.90
2023-10-23T13:28:38.323Z,4.60
2023-10-23T13:31:06.763Z,3.63
2023-10-23T13:33:35.056Z,4.60
2023-10-23T13:36:03.373Z,4.90
2023-10-23T13:38:33.224Z,4.20
2023-10-23T13:41:03.673Z,4.73
2023-10-23T13:43:31.977Z,4.63
2023-10-23T13:46:00.450Z,3.60
2023-10-23T13:48:29.038Z,3.73
2023-10-23T13:50:57.805Z,4.03
2023-10-23T13:53:26.067Z,4.17
2023-10-23T13:55:54.484Z,3.83
2023-10-23T13:58:24.214Z,3.67
2023-10-23T14:00:52.551Z,3.80
2023-10-23T14:03:20.829Z,4.57
2023-10-23T14:05:49.085Z,4.10
2023-10-23T14:08:17.442Z,3.77
2023-10-23T14:10:46.169Z,5.10
2023-10-23T14:13:35.741Z,3.70
2023-10-23T14:16:05.711Z,4.30
2023-10-23T14:18:34.079Z,4.23
2023-10-23T14:21:02.301Z,4.23
2023-10-23T14:23:30.534Z,3.60
2023-10-23T14:25:58.788Z,4.50
2023-10-23T14:28:27.154Z,4.23
2023-10-23T14:30:57.985Z,3.77
2023-10-23T14:33:27.860Z,4.13
2023-10-23T14:35:56.273Z,4.47
2023-10-23T14:38:25.728Z,3.53
2023-10-23T14:40:54.846Z,3.70
2023-10-23T14:43:23.180Z,3.80
2023-10-23T14:45:52.724Z,3.37
2023-10-23T14:48:24.201Z,3.73
2023-10-23T14:50:54.465Z,3.80
2023-10-23T14:53:22.907Z,4.10
2023-10-23T14:55:51.193Z,4.13
2023-10-23T14:58:19.489Z,3.93
2023-10-23T15:00:47.837Z,4.17
2023-10-23T15:03:16.187Z,4.30
2023-10-23T15:05:45.851Z,4.10
2023-10-23T15:08:14.112Z,5.90
2023-10-23T15:10:42.382Z,7.23
2023-10-23T15:13:10.672Z,5.70
2023-10-23T15:15:39.258Z,6.23
2023-10-23T15:18:07.620Z,5.83
2023-10-23T15:20:35.842Z,5.60
2023-10-23T15:23:07.427Z,7.87
2023-10-23T15:25:35.818Z,6.50
2023-10-23T15:28:05.301Z,6.23
2023-10-23T15:30:33.898Z,6.87
2023-10-23T15:33:02.277Z,12.43
2023-10-23T15:35:30.596Z,10.80
2023-10-23T15:37:58.896Z,6.40
2023-10-23T15:40:31.006Z,6.40
2023-10-23T15:43:00.748Z,12.87
2023-10-23T15:45:38.368Z,6.63
2023-10-23T15:48:07.043Z,6.70
2023-10-23T15:50:35.486Z,6.93
2023-10-23T15:53:03.893Z,6.20
2023-10-23T15:55:34.016Z,7.17
2023-10-23T15:58:03.152Z,6.80
2023-10-23T16:00:31.524Z,8.30
2023-10-23T16:03:00.361Z,12.87
2023-10-23T16:05:28.875Z,15.03
2023-10-23T16:07:57.236Z,10.17
2023-10-23T16:10:26.673Z,9.60
2023-10-23T16:12:56.454Z,10.77
2023-10-23T16:15:24.771Z,13.50
2023-10-23T16:17:53.108Z,10.90
2023-10-23T16:20:22.088Z,9.57
2023-10-23T16:22:50.647Z,13.03
2023-10-23T16:25:19.049Z,11.83
2023-10-23T16:27:47.434Z,11.07
2023-10-23T16:30:17.293Z,11.70
2023-10-23T16:32:46.351Z,11.50
2023-10-23T16:35:14.739Z,11.43
2023-10-23T16:37:42.989Z,10.93
2023-10-23T16:40:12.722Z,10.27
2023-10-23T16:42:41.040Z,10.90
2023-10-23T16:45:10.394Z,11.60
2023-10-23T16:47:40.410Z,10.93
2023-10-23T16:50:09.810Z,12.27
2023-10-23T16:52:38.583Z,10.53
2023-10-23T16:55:09.145Z,12.77
2023-10-23T16:57:37.728Z,12.00
2023-10-23T17:00:07.583Z,13.63
2023-10-23T17:02:36.143Z,12.73
2023-10-23T17:05:06.704Z,12.50
2023-10-23T17:07:36.210Z,14.17
2023-10-23T17:10:05.416Z,14.93
2023-10-23T17:12:33.816Z,15.50
2023-10-23T17:15:02.459Z,14.83
2023-10-23T17:17:31.067Z,17.83
2023-10-23T17:19:59.663Z,20.63
2023-10-23T17:22:29.326Z,19.27
2023-10-23T17:24:57.816Z,15.67
2023-10-23T17:27:26.209Z,21.33
2023-10-23T17:29:54.496Z,20.97
2023-10-23T17:32:22.944Z,18.40
2023-10-23T17:34:51.276Z,16.60
2023-10-23T17:37:19.622Z,17.63
2023-10-23T17:39:49.381Z,17.60
2023-10-23T17:42:17.987Z,16.83
2023-10-23T17:44:46.301Z,17.07
2023-10-23T17:47:14.640Z,18.87
2023-10-23T17:49:43.583Z,16.97
2023-10-23T17:52:12.128Z,16.90
2023-10-23T17:54:41.736Z,15.30
2023-10-23T17:57:11.466Z,14.10
2023-10-23T17:59:40.124Z,15.30
2023-10-23T18:02:08.631Z,16.50
2023-10-23T18:04:37.094Z,15.53
2023-10-23T18:07:05.470Z,15.13
2023-10-23T18:09:33.839Z,13.53
2023-10-23T18:12:02.158Z,15.27
2023-10-23T18:14:31.806Z,15.60
2023-10-23T18:17:00.263Z,15.80
2023-10-23T18:19:28.762Z,16.87
2023-10-23T18:21:57.254Z,13.47
2023-10-23T18:24:25.530Z,13.83
2023-10-23T18:26:54.080Z,14.67
2023-10-23T18:29:22.369Z,15.43
2023-10-23T18:31:52.062Z,15.70
2023-10-23T18:34:20.433Z,14.43
2023-10-23T18:36:48.784Z,13.63
2023-10-23T18:39:17.122Z,15.30
2023-10-23T18:41:45.416Z,14.30
2023-10-23T18:44:13.850Z,16.97
2023-10-23T18:46:42.250Z,16.53
2023-10-23T18:49:11.996Z,15.70
2023-10-23T18:51:40.268Z,15.10
2023-10-23T18:54:08.699Z,15.37
2023-10-23T18:56:38.567Z,13.30
2023-10-23T18:59:08.167Z,14.47
2023-10-23T19:01:36.824Z,15.67
2023-10-23T19:04:05.513Z,14.80
2023-10-23T19:06:36.947Z,13.13
2023-10-23T19:09:06.753Z,13.93
2023-10-23T19:11:35.174Z,14.80
2023-10-23T19:14:03.680Z,13.57
2023-10-23T19:16:32.132Z,20.23
2023-10-23T19:19:00.569Z,19.47
2023-10-23T19:21:28.917Z,19.87
2023-10-23T19:23:58.603Z,18.00
2023-10-23T19:26:27.471Z,16.47
2023-10-23T19:28:55.763Z,15.00
2023-10-23T19:31:25.913Z,14.77
2023-10-23T19:33:54.952Z,14.13
2023-10-23T19:36:25.701Z,13.33
2023-10-23T19:38:54.711Z,16.63
2023-10-23T19:41:29.781Z,12.63
2023-10-23T19:43:58.718Z,13.07
2023-10-23T19:46:28.034Z,13.37
2023-10-23T19:48:56.835Z,12.90
2023-10-23T19:51:25.275Z,11.90
2023-10-23T19:53:54.794Z,13.23
2023-10-23T19:56:31.525Z,12.27
2023-10-23T19:59:02.404Z,12.37
2023-10-23T20:01:31.631Z,11.17
2023-10-23T20:04:00.068Z,11.93
2023-10-23T20:06:28.518Z,11.53
2023-10-23T20:08:56.774Z,9.00
2023-10-23T20:11:25.068Z,13.13
2023-10-23T20:13:53.511Z,13.67
2023-10-23T20:16:23.258Z,12.17
2023-10-23T20:18:53.262Z,9.33
2023-10-23T20:21:21.594Z,10.70
2023-10-23T20:23:49.861Z,9.50
2023-10-23T20:26:18.405Z,9.67
2023-10-23T20:28:46.738Z,9.00
2023-10-23T20:31:18.707Z,0.40
2023-10-23T20:33:50.853Z,16.33
2023-10-23T20:36:20.040Z,9.33
2023-10-23T20:38:48.616Z,13.33
2023-10-23T20:41:17.320Z,10.17
2023-10-23T20:43:46.973Z,9.33
2023-10-23T20:46:19.433Z,12.37
2023-10-23T20:48:49.217Z,12.47
2023-10-23T20:51:17.574Z,12.63
2023-10-23T20:53:45.854Z,10.17
2023-10-23T20:56:14.180Z,10.20
2023-10-23T20:58:43.176Z,10.67
2023-10-23T21:01:11.585Z,12.23
2023-10-23T21:03:40.119Z,10.33
2023-10-23T21:06:09.970Z,13.37
2023-10-23T21:08:39.709Z,9.03
2023-10-23T21:11:08.495Z,11.93
2023-10-23T21:13:37.134Z,11.43
2023-10-23T21:16:07.651Z,13.50
2023-10-23T21:18:36.008Z,10.93
2023-10-23T21:21:05.761Z,13.77
2023-10-23T21:23:35.661Z,13.53
2023-10-23T21:26:05.370Z,13.73
2023-10-23T21:28:33.670Z,14.43
2023-10-23T21:31:02.267Z,10.83
2023-10-23T21:33:31.847Z,12.93
2023-10-23T21:36:00.278Z,14.87
2023-10-23T21:38:28.560Z,13.80
2023-10-23T21:40:58.193Z,10.97
2023-10-23T21:43:26.500Z,14.67
2023-10-23T21:46:14.961Z,14.87
2023-10-23T21:48:43.059Z,14.03
2023-10-23T21:51:11.419Z,15.53
2023-10-23T21:53:40.191Z,14.13
2023-10-23T21:56:11.427Z,14.20
2023-10-23T21:59:06.800Z,13.20
2023-10-23T22:01:29.783Z,12.47
2023-10-23T22:03:58.686Z,11.33
2023-10-23T22:06:27.622Z,14.13
2023-10-23T22:08:56.408Z,12.57
2023-10-23T22:11:26.715Z,11.70
2023-10-23T22:13:55.564Z,11.53
2023-10-23T22:16:24.028Z,11.73
2023-10-23T22:18:52.787Z,10.67
2023-10-23T22:21:21.082Z,11.03
2023-10-23T22:23:49.433Z,9.33
2023-10-23T22:26:17.672Z,10.13
2023-10-23T22:28:47.854Z,11.30
2023-10-23T22:31:16.253Z,9.23
2023-10-23T22:33:44.661Z,9.53
2023-10-23T22:36:12.915Z,11.80
2023-10-23T22:38:41.315Z,11.57
2023-10-23T22:41:09.540Z,10.77
2023-10-23T22:43:37.800Z,13.00
2023-10-23T22:46:07.641Z,12.53
2023-10-23T22:48:36.045Z,13.37
2023-10-23T22:51:04.893Z,13.23
2023-10-23T22:53:34.110Z,13.77
2023-10-23T22:56:04.525Z,13.27
2023-10-23T22:58:35.220Z,10.20
2023-10-23T23:01:04.076Z,11.20
2023-10-23T23:03:34.742Z,12.83
2023-10-23T23:06:07.305Z,11.77
2023-10-23T23:08:40.841Z,13.37
2023-10-23T23:11:11.444Z,10.97
2023-10-23T23:13:40.066Z,12.97
2023-10-23T23:16:09.424Z,11.30
2023-10-23T23:18:41.010Z,11.70
2023-10-23T23:21:10.777Z,10.13
2023-10-23T23:23:39.091Z,10.87
2023-10-23T23:26:07.642Z,12.27
2023-10-23T23:28:36.570Z,10.80
2023-10-23T23:31:04.882Z,12.60
2023-10-23T23:33:33.777Z,10.93
2023-10-23T23:36:03.571Z,12.50
2023-10-23T23:38:31.932Z,11.20
2023-10-23T23:41:00.521Z,8.00
2023-10-23T23:43:28.867Z,9.33
2023-10-23T23:45:58.368Z,9.43
2023-10-23T23:48:26.754Z,9.03
2023-10-23T23:50:55.070Z,8.67
2023-10-23T23:53:24.648Z,9.03
2023-10-23T23:55:52.962Z,8.20
2023-10-23T23:58:24.960Z,8.23
